Flight Track Log - Related Links

Times and Time Zones

All times are in EDT time to prevent confusion due to time zone crossing. See the EJA727 flight status page for this flight to view local times or setup timezone preferences in your user account.

Time Position Orientation Groundspeed Altitude Reporting Facility
EDT Latitude Longitude Course Direction KTS MPH feet Rate Location/Type
Fri 14:06:38 30.5894 -88.0325 210° Southwest 215 247 1,900  Level Houston Center
Fri 14:07:40 30.5525 -88.0569 210° Southwest 213 245 3,600 3,145 Climbing Houston Center
Fri 14:08:42 30.5631 -88.1586 277° West 265 305 8,400 4,016 Climbing Houston Center
Fri 14:09:44 30.5794 -88.2556 281° West 296 341 11,900 3,339 Climbing Houston Center
Fri 14:10:46 30.5842 -88.3714 273° West 357 411 15,300 3,145 Climbing Houston Center
Fri 14:11:48 30.5739 -88.4914 264° West 372 428 18,400 2,640 Climbing Houston Center
Fri 14:12:51 30.5975 -88.6158 282° West 391 450 20,800 2,112 Climbing Houston Center
Fri 14:13:53 30.6214 -88.7453 282° West 407 468 22,800 1,161 Climbing Houston Center
Fri 14:14:55 30.6469 -88.8897 282° West 448 516 23,200 1,452 Climbing Houston Center
Fri 14:15:57 30.6778 -89.0453 283° West 471 542 25,800 2,661 Climbing Houston Center
Fri 14:16:59 30.7078 -89.2133 282° West 450 518 28,700 2,274 Climbing Houston Center
Fri 14:18:01 30.7333 -89.3544 282° West 452 520 30,500 1,355 Climbing Houston Center
Fri 14:19:03 30.7606 -89.5008 282° West 471 542 31,500 1,065 Climbing Houston Center
Fri 14:20:05 30.7892 -89.6508 283° West 475 547 32,700 1,403 Climbing Houston Center
Fri 14:21:07 30.8158 -89.8006 282° West 477 549 34,400 1,452 Climbing Houston Center
Fri 14:22:09 30.8458 -89.9789 281° West 471 542 35,700 1,056 Climbing Houston Center
Fri 14:23:12 30.8733 -90.1256 282° West 467 537 36,600 738 Climbing Houston Center
Fri 14:25:16 30.9247 -90.4242 281° West 466 536 38,000 452 Climbing Houston Center
Fri 14:26:18 30.9503 -90.5728 281° West 468 539 38,000  Level Houston Center
Fri 14:27:20 30.9789 -90.7528 281° West 470 541 38,000  Level Houston Center
Fri 14:28:22 31.0042 -90.9014 281° West 469 540 38,000  Level Houston Center
Fri 14:29:24 31.0269 -91.0497 280° West 465 535 38,000  Level Houston Center
Fri 14:30:26 31.0531 -91.1975 282° West 461 531 38,000 145 Level Houston Center
Fri 14:31:28 31.0767 -91.3464 281° West 464 534 38,300 432 Climbing Houston Center
Fri 14:32:31 31.1028 -91.5211 280° West 468 539 38,900 528 Climbing Houston Center
Fri 14:33:33 31.1278 -91.6708 281° West 470 541 39,400 484 Climbing Houston Center
Fri 14:34:35 31.1503 -91.8183 280° West 462 532 39,900 290 Climbing Houston Center
Fri 14:35:37 31.1733 -91.9664 280° West 462 532 40,000 48 Climbing Houston Center
Fri 14:36:39 31.1964 -92.1194 280° West 453 521 40,000  Level Houston Center
Fri 14:37:41 31.2192 -92.2664 280° West 459 528 40,000  Level Houston Center
Fri 14:38:43 31.2456 -92.4425 280° West 460 529 40,000  Level Houston Center
Fri 14:39:45 31.2900 -92.5864 290° West 466 536 40,000  Level Houston Center
Fri 14:40:47 31.3417 -92.7217 294° West 461 531 40,000  Level Houston Center
Fri 14:41:50 31.3931 -92.8592 294° West 463 533 40,000  Level Houston Center
Fri 14:42:52 31.4444 -92.9947 294° West 459 528 40,000  Level Houston Center
Fri 14:43:54 31.5044 -93.1572 293° West 457 526 40,000  Level Houston Center
Fri 14:44:56 31.5553 -93.2917 294° West 455 524 40,000  Level Houston Center
Fri 14:45:58 31.6100 -93.4392 294° West 456 525 40,000  Level Houston Center
Fri 14:47:00 31.6597 -93.5747 293° West 454 522 40,000  Level Houston Center
Fri 14:48:02 31.7106 -93.7181 293° West 454 522 40,000  Level Houston Center
Fri 14:50:07 31.8014 -93.9867 292° West 453 521 40,000  Level Houston Center
Fri 14:51:09 31.8475 -94.1231 292° West 451 519 40,000  Level Houston Center
Fri 14:52:11 31.8953 -94.2628 292° West 446 513 40,000  Level Houston Center
Fri 14:53:13 31.9450 -94.4164 291° West 424 488 40,000 -48 Level Houston Center
Fri 14:54:15 31.9883 -94.5458 292° West 425 489 39,900 -1,161 Descending Houston Center
Fri 14:55:17 32.0308 -94.6767 291° West 429 494 37,600 -2,208 Descending Houston Center
Fri 14:56:20 32.0781 -94.8219 291° West 437 503 35,300 -2,293 Descending Fort Worth Center
Fri 14:57:20 32.1206 -94.9556 291° West 442 509 32,900 -2,250 Descending Fort Worth Center
Fri 14:58:20 32.1294 -95.0928 274° West 426 490 30,800 -2,050 Descending Fort Worth Center
Fri 14:59:20 32.1339 -95.2275 272° West 426 490 28,800 -2,050 Descending Fort Worth Center
Fri 15:00:20 32.1381 -95.3575 272° West 416 479 26,700 -1,950 Descending Fort Worth Center
Fri 15:01:20 32.1528 -95.4872 278° West 411 473 24,900 -1,650 Descending Fort Worth Center
Fri 15:02:20 32.2067 -95.5989 300° West 389 448 23,400 -1,950 Descending Fort Worth Center
Fri 15:03:20 32.2647 -95.7181 300° West 389 448 21,000 -2,500 Descending Fort Worth Center
Fri 15:04:20 32.3183 -95.8303 300° West 394 453 18,400 -2,500 Descending Fort Worth Center
Fri 15:05:20 32.3781 -95.9497 301° West 416 479 16,000 -2,150 Descending Fort Worth Center
Fri 15:06:20 32.4253 -96.0475 300° West 407 468 14,100 -1,900 Descending Fort Worth Center
Fri 15:07:20 32.4786 -96.1575 300° West 359 413 12,200 -1,750 Descending Fort Worth Center
Fri 15:08:20 32.5169 -96.2381 299° West 326 375 10,600 -2,050 Descending Fort Worth Center
Fri 15:09:20 32.5636 -96.3339 300° West 306 352 8,100 -2,350 Descending Fort Worth Center
Fri 15:10:20 32.6039 -96.4022 305° West 296 341 5,900 -1,550 Descending Fort Worth Center
Fri 15:11:20 32.6506 -96.4881 303° West 284 327 5,000 -450 Descending Fort Worth Center
Fri 15:12:20 32.6969 -96.5469 313° West 278 320 5,000  Level Fort Worth Center
Fri 15:13:20 32.7600 -96.6156 318° Northwest 278 320 5,000  Level Fort Worth Center
Fri 15:14:20 32.8167 -96.6833 315° West 273 314 5,000 -600 Level Dallas / Fort Worth TRACON
Fri 15:15:20 32.8667 -96.7333 320° Northwest 280 322 3,800 -1,000 Descending Dallas / Fort Worth TRACON
Fri 15:16:20 32.9167 -96.8167 306° West 251 289 3,000 -650 Descending Dallas / Fort Worth TRACON
Fri 15:17:20 32.9333 -96.8833 287° West 188 216 2,500 -762 Descending Dallas / Fort Worth TRACON
Fri 15:18:26 32.8833 -96.8833 180° South 131 151 1,400 -633 Descending Dallas / Fort Worth TRACON
Fri 15:20:20 32.8425 -96.8594 154° Southeast 83 96 600 -421 Descending Fort Worth Center

Login

Don't have an account? Register now (free) for customized features, flight alerts, and more!